New York, New York
Traffic Map
Current Weather Conditions
New York, New York
Clear
Clear
24°
Feels Like: 24°
Wind Chill: 24° Ceiling: Unl
Heat Index: 24° Visibility: 10mi
Dew Point: 19° Wind: 3mph
Humidity: 73% Direction: ° ()
Pressure: 30.08in Gusts: 0mph
Raw Report DataKNYC 310151Z AUTO VRB03KT 10SM CLR 24/19 A3008 RMK AO2 SLP177 T02390189
Traffic Incident Summary
Active as of:
Severity:
Category:
InformationThere was an issue retrieving the traffic information for this location. Please try a different location or try again shortly.
Advertisements
Track Severe Weather on mobile